createdAt,value
2022-12-12T00:01:41.336Z,8.80
2022-12-12T00:05:44.037Z,10.40
2022-12-12T00:09:46.722Z,9.80
2022-12-12T00:13:49.539Z,10.60
2022-12-12T00:17:53.685Z,10.85
2022-12-12T00:21:56.457Z,10.35
2022-12-12T00:26:01.769Z,10.65
2022-12-12T00:30:06.097Z,10.75
2022-12-12T00:34:10.165Z,9.80
2022-12-12T00:38:13.942Z,10.80
2022-12-12T00:42:16.655Z,10.02
2022-12-12T00:46:22.204Z,10.23
2022-12-12T00:50:26.384Z,10.50
2022-12-12T00:54:29.441Z,10.63
2022-12-12T00:58:33.543Z,10.52
2022-12-12T01:02:36.612Z,11.43
2022-12-12T01:06:40.814Z,11.23
2022-12-12T01:10:43.573Z,10.30
2022-12-12T01:14:46.349Z,11.07
2022-12-12T01:18:49.165Z,10.93
2022-12-12T01:22:53.951Z,10.43
2022-12-12T01:26:56.721Z,10.88
2022-12-12T01:30:59.624Z,10.27
2022-12-12T01:35:07.269Z,11.18
2022-12-12T01:39:11.477Z,10.40
2022-12-12T01:43:14.938Z,9.90
2022-12-12T01:47:19.419Z,10.88
2022-12-12T01:51:24.280Z,10.18
2022-12-12T01:55:28.353Z,11.02
2022-12-12T01:59:31.641Z,10.20
2022-12-12T02:03:34.385Z,11.05
2022-12-12T02:07:37.137Z,10.55
2022-12-12T02:11:46.103Z,10.77
2022-12-12T02:15:58.130Z,10.32
2022-12-12T02:20:41.123Z,10.63
2022-12-12T02:25:11.010Z,9.60
2022-12-12T02:29:55.577Z,10.80
2022-12-12T02:34:04.913Z,9.77
2022-12-12T02:38:20.290Z,11.23
2022-12-12T02:42:27.912Z,9.98
2022-12-12T02:46:35.641Z,10.93
2022-12-12T02:50:41.733Z,10.10
2022-12-12T02:54:44.467Z,10.68
2022-12-12T02:58:47.206Z,10.73
2022-12-12T03:03:17.290Z,10.70
2022-12-12T03:07:46.853Z,10.73
2022-12-12T03:12:03.294Z,9.88
2022-12-12T03:16:20.053Z,9.90
2022-12-12T03:20:27.569Z,9.88
2022-12-12T03:24:36.295Z,9.70
2022-12-12T03:28:41.337Z,10.90
2022-12-12T03:32:49.500Z,10.90
2022-12-12T03:36:55.458Z,10.57
2022-12-12T03:41:02.458Z,10.52
2022-12-12T03:45:11.966Z,10.30
2022-12-12T03:49:18.716Z,10.32
2022-12-12T03:53:27.816Z,10.57
2022-12-12T03:57:37.037Z,12.10
2022-12-12T04:01:45.400Z,11.85
2022-12-12T04:06:09.648Z,10.75
2022-12-12T04:10:30.545Z,12.65
2022-12-12T04:14:52.485Z,11.15
2022-12-12T04:18:59.278Z,10.85
2022-12-12T04:23:16.043Z,11.15
2022-12-12T04:27:23.321Z,10.27
2022-12-12T04:31:29.844Z,10.50
2022-12-12T04:35:36.561Z,11.52
2022-12-12T04:39:41.358Z,11.38
2022-12-12T04:43:48.465Z,11.03
2022-12-12T04:47:54.414Z,10.35
2022-12-12T04:52:01.873Z,11.02
2022-12-12T04:56:09.348Z,11.23
2022-12-12T05:00:14.621Z,11.45
2022-12-12T05:04:25.476Z,10.27
2022-12-12T05:08:32.724Z,10.10
2022-12-12T05:12:41.192Z,10.30
2022-12-12T05:16:48.000Z,11.75
2022-12-12T05:20:52.057Z,10.25
2022-12-12T05:24:54.780Z,11.30
2022-12-12T05:29:02.364Z,10.65
2022-12-12T05:33:09.546Z,11.07
2022-12-12T05:37:13.629Z,10.65
2022-12-12T05:41:16.738Z,11.23
2022-12-12T05:45:19.685Z,11.40
2022-12-12T05:49:22.518Z,10.88
2022-12-12T05:53:26.663Z,10.35
2022-12-12T05:57:29.401Z,11.57
2022-12-12T06:01:32.675Z,12.05
2022-12-12T06:05:37.472Z,11.80
2022-12-12T06:09:41.551Z,12.07
2022-12-12T06:13:44.278Z,12.13
2022-12-12T06:17:47.025Z,12.00
2022-12-12T06:21:49.795Z,13.45
2022-12-12T06:25:53.893Z,11.02
2022-12-12T06:29:59.281Z,11.68
2022-12-12T06:34:01.969Z,10.70
2022-12-12T06:38:04.728Z,11.50
2022-12-12T06:42:08.857Z,10.75
2022-12-12T06:46:14.685Z,12.20
2022-12-12T06:54:26.708Z,11.05
2022-12-12T06:58:30.762Z,10.93
2022-12-12T07:02:33.542Z,10.75
2022-12-12T07:06:36.315Z,10.85
2022-12-12T07:10:39.084Z,11.80
2022-12-12T07:14:43.104Z,11.38
2022-12-12T07:18:46.367Z,11.60
2022-12-12T07:22:49.116Z,10.40
2022-12-12T07:26:51.870Z,11.13
2022-12-12T07:30:56.028Z,10.88
2022-12-12T07:34:58.769Z,9.73
2022-12-12T07:39:01.453Z,10.07
2022-12-12T07:43:04.442Z,9.60
2022-12-12T07:47:11.373Z,9.23
2022-12-12T07:51:14.221Z,9.20
2022-12-12T07:55:17.156Z,8.50
2022-12-12T07:59:19.856Z,8.13
2022-12-12T08:03:23.999Z,8.88
2022-12-12T08:07:28.888Z,8.48
2022-12-12T08:11:31.632Z,7.30
2022-12-12T08:15:34.938Z,7.63
2022-12-12T08:19:39.085Z,7.80
2022-12-12T08:23:42.659Z,7.65
2022-12-12T08:27:45.489Z,6.70
2022-12-12T08:31:48.321Z,7.47
2022-12-12T08:35:52.413Z,6.15
2022-12-12T08:39:55.901Z,6.10
2022-12-12T08:43:58.665Z,6.95
2022-12-12T08:48:01.386Z,5.93
2022-12-12T08:52:09.838Z,6.63
2022-12-12T08:56:12.759Z,6.90
2022-12-12T09:00:16.654Z,6.43
2022-12-12T09:04:19.369Z,6.60
2022-12-12T09:08:23.513Z,7.53
2022-12-12T09:12:26.444Z,7.78
2022-12-12T09:16:30.009Z,7.10
2022-12-12T09:20:32.834Z,7.15
2022-12-12T09:24:36.908Z,6.60
2022-12-12T09:28:39.625Z,7.03
2022-12-12T09:32:45.189Z,6.38
2022-12-12T09:36:48.729Z,7.05
2022-12-12T09:40:55.764Z,7.35
2022-12-12T09:45:01.254Z,7.40
2022-12-12T09:49:25.896Z,6.90
2022-12-12T09:53:29.631Z,6.82
2022-12-12T09:57:42.468Z,7.40
2022-12-12T10:01:53.585Z,6.93
2022-12-12T10:06:36.039Z,7.45
2022-12-12T10:10:32.337Z,12.27
2022-12-12T10:14:42.007Z,7.55
2022-12-12T10:18:48.254Z,6.25
2022-12-12T10:22:57.438Z,7.90
2022-12-12T10:27:02.320Z,8.00
2022-12-12T10:31:30.121Z,7.18
2022-12-12T10:35:41.313Z,7.90
2022-12-12T10:39:57.533Z,6.47
2022-12-12T10:44:06.241Z,7.22
2022-12-12T10:48:10.314Z,6.45
2022-12-12T10:52:18.748Z,6.35
2022-12-12T10:56:23.678Z,16.30
2022-12-12T11:00:30.298Z,8.30
2022-12-12T11:04:34.350Z,5.97
2022-12-12T11:08:37.865Z,6.55
2022-12-12T11:12:40.628Z,15.27
2022-12-12T11:16:45.074Z,6.60
2022-12-12T11:20:51.787Z,5.55
2022-12-12T11:24:54.903Z,10.98
2022-12-12T11:29:00.181Z,7.00
2022-12-12T11:33:04.742Z,10.30
2022-12-12T11:37:16.962Z,4.95
2022-12-12T11:41:23.240Z,5.40
2022-12-12T11:45:25.952Z,6.40
2022-12-12T11:49:28.761Z,5.00
2022-12-12T11:53:36.108Z,4.90
2022-12-12T11:58:03.281Z,5.20
2022-12-12T12:02:24.777Z,4.95
2022-12-12T12:06:42.111Z,4.10
2022-12-12T12:11:01.745Z,4.78
2022-12-12T12:15:27.017Z,8.30
2022-12-12T12:19:40.753Z,4.75
2022-12-12T12:23:52.236Z,3.80
2022-12-12T12:28:06.859Z,4.50
2022-12-12T12:32:18.688Z,4.07
2022-12-12T12:36:24.524Z,4.45
2022-12-12T12:40:39.550Z,4.88
2022-12-12T12:44:50.797Z,4.65
2022-12-12T12:48:56.775Z,4.68
2022-12-12T12:53:04.605Z,5.80
2022-12-12T12:57:12.551Z,4.75
2022-12-12T13:01:21.902Z,5.68
2022-12-12T13:05:32.023Z,5.15
2022-12-12T13:09:41.660Z,5.63
2022-12-12T13:13:47.294Z,4.65
2022-12-12T13:17:58.988Z,4.60
2022-12-12T13:22:07.285Z,5.72
2022-12-12T13:26:16.617Z,4.53
2022-12-12T13:30:24.604Z,4.53
2022-12-12T13:34:31.340Z,4.90
2022-12-12T13:38:35.700Z,6.38
2022-12-12T13:43:05.681Z,5.22
2022-12-12T13:47:34.480Z,5.50
2022-12-12T13:51:41.992Z,5.65
2022-12-12T13:55:44.757Z,4.35
2022-12-12T14:00:20.181Z,6.03
2022-12-12T14:04:28.555Z,5.93
2022-12-12T14:08:37.589Z,10.18
2022-12-12T14:12:40.641Z,7.25
2022-12-12T14:16:43.491Z,5.18
2022-12-12T14:20:56.124Z,3.83
2022-12-12T14:25:09.338Z,4.00
2022-12-12T14:29:27.233Z,3.35
2022-12-12T14:33:54.752Z,4.93
2022-12-12T14:38:09.924Z,4.47
2022-12-12T14:42:23.820Z,2.33
2022-12-12T14:46:26.558Z,2.83
2022-12-12T14:50:29.293Z,2.72
2022-12-12T14:54:32.281Z,3.00
2022-12-12T14:58:39.792Z,3.58
2022-12-12T15:02:49.970Z,3.53
2022-12-12T15:06:53.739Z,5.32
2022-12-12T15:10:59.745Z,5.82
2022-12-12T15:15:05.111Z,5.88
2022-12-12T15:19:14.798Z,6.93
2022-12-12T15:23:20.195Z,8.13
2022-12-12T15:27:26.960Z,10.25
2022-12-12T15:31:31.089Z,6.15
2022-12-12T15:35:34.321Z,7.85
2022-12-12T15:39:37.665Z,11.57
2022-12-12T15:43:41.200Z,12.05
2022-12-12T15:47:45.486Z,10.00
2022-12-12T15:51:48.197Z,16.08
2022-12-12T15:56:01.634Z,12.40
2022-12-12T16:00:09.694Z,8.65
2022-12-12T16:04:26.076Z,9.15
2022-12-12T16:13:02.673Z,8.18
2022-12-12T16:17:07.670Z,9.73
2022-12-12T16:21:11.988Z,10.00
2022-12-12T16:25:21.134Z,12.68
2022-12-12T16:29:23.856Z,23.85
2022-12-12T16:33:33.032Z,20.40
2022-12-12T16:37:37.102Z,13.05
2022-12-12T16:41:40.865Z,14.32
2022-12-12T16:45:44.133Z,14.32
2022-12-12T16:49:47.180Z,14.82
2022-12-12T16:53:51.348Z,16.20
2022-12-12T16:57:54.047Z,17.13
2022-12-12T17:01:56.745Z,9.50
2022-12-12T17:06:02.089Z,14.47
2022-12-12T17:10:07.233Z,15.95
2022-12-12T17:14:15.683Z,13.57
2022-12-12T17:18:18.805Z,12.88
2022-12-12T17:22:21.525Z,12.70
2022-12-12T17:26:25.652Z,11.40
2022-12-12T17:30:29.189Z,11.03
2022-12-12T17:34:32.744Z,10.43
2022-12-12T17:38:35.685Z,9.68
2022-12-12T17:42:39.877Z,9.48
2022-12-12T17:46:42.740Z,8.13
2022-12-12T17:50:45.441Z,8.43
2022-12-12T17:55:53.079Z,7.35
2022-12-12T17:59:12.358Z,7.97
2022-12-12T18:03:15.085Z,9.27
2022-12-12T18:07:17.812Z,12.60
2022-12-12T18:11:23.259Z,13.05
2022-12-12T18:15:27.328Z,12.52
2022-12-12T18:19:30.235Z,11.73
2022-12-12T18:23:33.520Z,11.88
2022-12-12T18:27:38.015Z,13.43
2022-12-12T18:31:42.137Z,10.98
2022-12-12T18:35:45.467Z,8.52
2022-12-12T18:39:48.194Z,11.48
2022-12-12T18:43:50.955Z,28.88
2022-12-12T18:47:55.639Z,31.15
2022-12-12T18:51:58.321Z,12.05
2022-12-12T18:56:01.313Z,10.90
2022-12-12T19:00:07.014Z,10.07
2022-12-12T19:04:14.340Z,10.13
2022-12-12T19:08:18.996Z,12.80
2022-12-12T19:12:21.777Z,18.70
2022-12-12T19:16:24.713Z,24.15
2022-12-12T19:20:28.842Z,25.85
2022-12-12T19:24:31.801Z,23.70
2022-12-12T19:28:35.007Z,19.00
2022-12-12T19:32:37.734Z,18.48
2022-12-12T19:36:42.346Z,15.45
2022-12-12T19:40:45.090Z,15.05
2022-12-12T19:44:47.861Z,14.52
2022-12-12T19:48:54.403Z,13.48
2022-12-12T19:52:59.131Z,11.93
2022-12-12T19:57:01.932Z,11.35
2022-12-12T20:01:07.571Z,14.68
2022-12-12T20:09:19.049Z,9.15
2022-12-12T20:13:21.916Z,8.52
2022-12-12T20:17:24.756Z,8.52
2022-12-12T20:25:53.349Z,9.50
2022-12-12T20:29:56.160Z,8.85
2022-12-12T20:34:00.318Z,9.82
2022-12-12T20:38:03.205Z,10.65
2022-12-12T20:42:07.547Z,10.95
2022-12-12T20:46:12.103Z,10.68
2022-12-12T20:50:14.913Z,14.23
2022-12-12T20:54:19.902Z,11.52
2022-12-12T20:58:24.015Z,11.60
2022-12-12T21:02:30.159Z,11.10
2022-12-12T21:06:34.981Z,13.15
2022-12-12T21:10:37.710Z,11.18
2022-12-12T21:14:41.798Z,10.02
2022-12-12T21:18:44.484Z,12.00
2022-12-12T21:22:47.239Z,12.00
2022-12-12T21:26:50.029Z,10.88
2022-12-12T21:30:54.145Z,10.25
2022-12-12T21:34:56.967Z,10.60
2022-12-12T21:39:00.717Z,10.05
2022-12-12T21:43:03.443Z,9.90
2022-12-12T21:47:07.556Z,10.38
2022-12-12T21:51:14.225Z,10.52
2022-12-12T21:55:17.086Z,10.48
2022-12-12T21:59:19.829Z,11.00
2022-12-12T22:03:23.920Z,11.15
2022-12-12T22:07:26.678Z,9.63
2022-12-12T22:11:41.605Z,8.88
2022-12-12T22:15:59.571Z,12.77
2022-12-12T22:20:04.007Z,12.73
2022-12-12T22:24:07.766Z,13.02
2022-12-12T22:28:10.463Z,11.98
2022-12-12T22:32:13.204Z,11.63
2022-12-12T22:36:19.929Z,12.98
2022-12-12T22:40:22.802Z,14.13
2022-12-12T22:44:26.522Z,9.68
2022-12-12T22:48:30.544Z,9.23
2022-12-12T22:52:34.859Z,9.35
2022-12-12T22:56:38.231Z,10.75
2022-12-12T23:00:40.917Z,10.15
2022-12-12T23:04:45.251Z,11.35
2022-12-12T23:08:52.552Z,10.07
2022-12-12T23:12:55.450Z,9.82
2022-12-12T23:16:58.179Z,9.43
2022-12-12T23:21:01.105Z,8.48
2022-12-12T23:25:05.645Z,8.57
2022-12-12T23:29:10.407Z,8.98
2022-12-12T23:33:13.113Z,8.90
2022-12-12T23:37:16.441Z,9.55
2022-12-12T23:41:20.504Z,10.63
2022-12-12T23:45:23.241Z,14.30
2022-12-12T23:49:27.195Z,10.85
2022-12-12T23:53:32.392Z,10.05
2022-12-12T23:57:36.445Z,10.30
